La Tuque, Canada
Current Conditions -  °F | °C
As of 2:00 PM on Monday 20 Oct 2014 (Local Time) from CYOY Reporting Station
Scattered Clouds Scattered Clouds  
Wind Chill: 40°   Ceiling: Unl
Heat Index: 45°   Visibility: 15mi
Dew Point: 25°   Wind: 9mph
Humidity: 46%   Direction: 270°W
Pressure: 29.85"   Gusts: NA
Location:  47.44°N, 72.78°W
Report Text: CYOY 201800Z 27008KT 15SM FEW040 FEW090 SCT220 07/M04 A2985 RMKCU1AC2CI0 SLP116
Loading
Personal Weather Stations






























Interactive Weather Map
Tropical Storm Tracking
New forecast layout! Learn more

10-Day Weather Forecast

Advertisements
Track Severe Weather on mobile